Terminal Aerodrome Forecast
Issued by NWS

Home | Current Version | Previous Version | Text Only | Print | Product List | Glossary On
Versions: 1 2 3 4 5 6 7 8 9 10 11 12 13 14 15 16 17
000
FTUS43 KILX 202100 AAA
TAFCMI
TAF AMD
KCMI 202100Z 2021/2118 16006KT P6SM SCT050 BKN120
      TEMPO 2021/2101 BKN050
     FM210100 15004KT P6SM SCT050 BKN100
     FM210800 15004KT P6SM VCTS SCT045CB BKN100
     FM211100 16004KT 6SM BR SCT045 BKN090
     FM211500 21008KT P6SM SCT040 BKN080=

USA.gov is the U.S. government's official web portal to all federal, state and local government web resources and services.